Time;durP1;ratioP1;P1;durP2;ratioP2;P2;SDS_P1;SDS_P2;PMS_P1;PMS_P2;Temp;Humidity;BMP_temperature;BMP_pressure;BME280_temperature;BME280_humidity;BME280_pressure;Samples;Min_cycle;Max_cycle;Signal;HPM_P1;HPM_P2
2023/01/21 00:00:15;;;;;;;;;14.00;9.50;;;;;;;;5013595;28;45585;-81
2023/01/21 00:02:41;;;;;;;;;13.75;10.00;;;;;;;;5011214;28;45431;-81
2023/01/21 00:05:06;;;;;;;;;12.50;11.50;;;;;;;;5013980;28;45439;-82
2023/01/21 00:07:31;;;;;;;;;7.25;7.00;;;;;;;;5014482;28;46240;-82
2023/01/21 00:09:57;;;;;;;;;11.00;7.75;;;;;;;;5016111;28;45292;-81
2023/01/21 00:12:22;;;;;;;;;4.00;1.75;;;;;;;;5015948;28;45388;-82
2023/01/21 00:14:47;;;;;;;;;12.00;10.00;;;;;;;;5017844;28;45394;-82
2023/01/21 00:17:12;;;;;;;;;10.00;10.00;;;;;;;;5006952;28;46029;-82
2023/01/21 00:19:37;;;;;;;;;11.00;8.00;;;;;;;;5019926;28;45458;-82
2023/01/21 00:22:03;;;;;;;;;9.25;7.50;;;;;;;;5014587;28;44774;-81
2023/01/21 00:24:28;;;;;;;;;9.50;7.00;;;;;;;;5008735;28;45964;-81
2023/01/21 00:26:53;;;;;;;;;16.00;10.00;;;;;;;;5009814;28;45327;-81
2023/01/21 00:29:20;;;;;;;;;15.25;8.25;;;;;;;;5009183;28;45457;-81
2023/01/21 00:31:45;;;;;;;;;7.75;6.50;;;;;;;;5016195;28;45331;-81
2023/01/21 00:34:11;;;;;;;;;11.25;6.75;;;;;;;;5013837;28;45599;-81
2023/01/21 00:36:36;;;;;;;;;7.75;6.00;;;;;;;;5005093;28;46170;-81
2023/01/21 00:39:01;;;;;;;;;11.50;8.00;;;;;;;;5010902;28;45314;-81
2023/01/21 00:41:26;;;;;;;;;6.00;6.00;;;;;;;;5013344;28;45366;-80
2023/01/21 00:43:52;;;;;;;;;10.75;8.25;;;;;;;;5021909;28;45629;-81
2023/01/21 00:46:17;;;;;;;;;6.75;6.00;;;;;;;;5016421;28;46210;-81
2023/01/21 00:48:42;;;;;;;;;10.00;5.50;;;;;;;;5015052;28;45212;-81
2023/01/21 00:51:08;;;;;;;;;12.25;7.00;;;;;;;;5011447;28;45543;-80
2023/01/21 00:53:34;;;;;;;;;4.00;2.25;;;;;;;;5012458;28;45034;-80
2023/01/21 00:56:03;;;;;;;;;6.00;6.00;;;;;;;;5019230;28;47566;-80
2023/01/21 00:58:29;;;;;;;;;6.50;6.50;;;;;;;;5012765;28;45265;-80
2023/01/21 01:01:00;;;;;;;;;8.50;6.50;;;;;;;;5012369;28;45360;-80
2023/01/21 01:03:25;;;;;;;;;9.00;6.00;;;;;;;;5013589;28;45389;-80
2023/01/21 01:05:51;;;;;;;;;9.00;8.00;;;;;;;;5011178;28;46179;-80
2023/01/21 01:08:16;;;;;;;;;10.75;8.25;;;;;;;;5019302;28;45335;-80
2023/01/21 01:10:41;;;;;;;;;12.00;9.00;;;;;;;;5023185;28;45687;-79
2023/01/21 01:13:07;;;;;;;;;11.25;8.25;;;;;;;;5019240;28;45289;-80
2023/01/21 01:15:32;;;;;;;;;13.25;9.00;;;;;;;;5015662;28;47052;-80
2023/01/21 01:17:57;;;;;;;;;8.50;7.00;;;;;;;;5010860;28;45292;-80
2023/01/21 01:20:22;;;;;;;;;10.00;7.50;;;;;;;;5014538;28;45691;-80
2023/01/21 01:22:47;;;;;;;;;10.00;7.50;;;;;;;;5017877;28;45321;-80
2023/01/21 01:25:14;;;;;;;;;11.00;9.00;;;;;;;;5017722;28;45450;-80
2023/01/21 01:27:39;;;;;;;;;11.00;8.50;;;;;;;;5019131;28;45236;-79
2023/01/21 01:30:05;;;;;;;;;9.00;9.00;;;;;;;;5019065;28;45720;-79
2023/01/21 01:32:30;;;;;;;;;8.50;6.75;;;;;;;;5013788;28;45568;-79
2023/01/21 01:34:55;;;;;;;;;11.25;11.25;;;;;;;;5019555;28;45336;-79
2023/01/21 01:37:20;;;;;;;;;10.00;9.50;;;;;;;;5013399;28;45205;-78
2023/01/21 01:39:46;;;;;;;;;11.25;11.25;;;;;;;;5017019;28;45253;-78
2023/01/21 01:42:14;;;;;;;;;13.25;12.00;;;;;;;;5004103;28;45222;-78
2023/01/21 01:44:55;;;;;;;;;16.25;12.50;;;;;;;;5012451;28;46614;-79
2023/01/21 01:47:21;;;;;;;;;20.25;15.25;;;;;;;;5008831;28;45451;-78
2023/01/21 01:49:47;;;;;;;;;15.25;14.75;;;;;;;;5016459;28;45207;-79
2023/01/21 01:52:14;;;;;;;;;21.25;15.50;;;;;;;;5007171;28;45410;-78
2023/01/21 01:54:42;;;;;;;;;18.50;17.00;;;;;;;;5016217;28;46196;-79
2023/01/21 01:57:09;;;;;;;;;15.50;15.50;;;;;;;;5004519;28;45380;-79
2023/01/21 01:59:34;;;;;;;;;19.75;15.00;;;;;;;;5016135;28;45260;-79
2023/01/21 02:02:03;;;;;;;;;15.50;12.75;;;;;;;;5010021;28;45932;-79
2023/01/21 02:04:33;;;;;;;;;15.25;14.50;;;;;;;;5017912;28;45567;-79
2023/01/21 02:06:59;;;;;;;;;17.75;12.50;;;;;;;;5014478;28;44802;-78
2023/01/21 02:09:28;;;;;;;;;19.75;13.00;;;;;;;;5018397;28;45216;-79
2023/01/21 02:11:54;;;;;;;;;12.25;12.25;;;;;;;;5010595;28;45289;-79
2023/01/21 02:14:19;;;;;;;;;11.75;11.75;;;;;;;;5016270;28;47020;-78
2023/01/21 02:16:53;;;;;;;;;15.00;14.50;;;;;;;;5006238;28;45362;-78
2023/01/21 02:19:22;;;;;;;;;18.00;12.50;;;;;;;;5023665;28;45101;-79
2023/01/21 02:21:58;;;;;;;;;19.00;12.00;;;;;;;;5006216;28;45641;-78
2023/01/21 02:24:38;;;;;;;;;11.25;9.50;;;;;;;;5018030;28;45340;-78
2023/01/21 02:27:06;;;;;;;;;18.25;13.75;;;;;;;;5007109;28;45312;-78
2023/01/21 02:29:31;;;;;;;;;19.75;16.50;;;;;;;;5026339;28;45322;-79
2023/01/21 02:32:03;;;;;;;;;14.75;12.25;;;;;;;;5005874;28;45301;-79
2023/01/21 02:34:28;;;;;;;;;13.00;12.25;;;;;;;;5017228;28;45367;-79
2023/01/21 02:37:04;;;;;;;;;14.25;14.25;;;;;;;;5002985;28;45372;-79
2023/01/21 02:39:49;;;;;;;;;15.00;13.25;;;;;;;;5013719;28;45427;-80
2023/01/21 02:42:19;;;;;;;;;11.25;11.25;;;;;;;;5011174;28;45348;-79
2023/01/21 02:44:53;;;;;;;;;15.75;14.50;;;;;;;;5011585;28;48431;-78
2023/01/21 02:47:24;;;;;;;;;16.25;16.00;;;;;;;;5007419;28;45375;-79
2023/01/21 02:49:59;;;;;;;;;18.00;15.50;;;;;;;;5012235;28;45398;-79
2023/01/21 02:52:24;;;;;;;;;18.00;15.25;;;;;;;;5005763;28;45320;-79
2023/01/21 02:54:57;;;;;;;;;20.50;14.00;;;;;;;;5014405;28;46307;-78
2023/01/21 02:57:42;;;;;;;;;24.50;17.50;;;;;;;;5014866;28;45273;-79
2023/01/21 03:00:10;;;;;;;;;17.00;15.75;;;;;;;;5008935;28;45420;-79
2023/01/21 03:02:35;;;;;;;;;20.75;19.75;;;;;;;;5018411;28;45485;-79
2023/01/21 03:05:15;;;;;;;;;22.25;17.25;;;;;;;;5024331;28;45057;-79
2023/01/21 03:07:45;;;;;;;;;21.00;18.75;;;;;;;;5016657;28;45276;-79
2023/01/21 03:10:16;;;;;;;;;20.25;19.25;;;;;;;;5014917;28;45318;-79
2023/01/21 03:12:48;;;;;;;;;26.00;19.50;;;;;;;;5012754;28;45528;-80
2023/01/21 03:18:16;;;;;;;;;18.00;17.50;;;;;;;;5011029;28;45346;-80
2023/01/21 03:20:51;;;;;;;;;25.00;23.00;;;;;;;;5015456;28;45466;-78
2023/01/21 03:23:19;;;;;;;;;32.25;19.50;;;;;;;;5017775;28;45533;-80
2023/01/21 03:25:46;;;;;;;;;23.75;21.75;;;;;;;;5008336;28;46626;-79
2023/01/21 03:28:14;;;;;;;;;25.00;22.75;;;;;;;;5012866;28;45214;-79
2023/01/21 03:30:42;;;;;;;;;23.25;21.75;;;;;;;;5011764;28;44722;-79
2023/01/21 03:33:09;;;;;;;;;25.75;21.25;;;;;;;;5002856;28;45297;-79
2023/01/21 03:35:38;;;;;;;;;25.75;22.75;;;;;;;;5014759;28;45494;-79
2023/01/21 03:38:09;;;;;;;;;26.50;18.75;;;;;;;;5005460;28;45206;-79
2023/01/21 03:40:39;;;;;;;;;22.25;19.25;;;;;;;;5017171;28;45221;-80
2023/01/21 03:43:04;;;;;;;;;22.00;17.25;;;;;;;;5009851;28;46238;-79
2023/01/21 03:45:33;;;;;;;;;28.25;20.75;;;;;;;;5012002;28;45452;-79
2023/01/21 03:48:03;;;;;;;;;24.75;23.50;;;;;;;;5010330;28;45442;-80
2023/01/21 03:50:34;;;;;;;;;26.00;24.50;;;;;;;;5017852;28;45224;-80
2023/01/21 03:52:59;;;;;;;;;25.50;18.00;;;;;;;;5012699;28;45503;-79
2023/01/21 03:55:24;;;;;;;;;27.75;22.50;;;;;;;;5012342;28;45893;-80
2023/01/21 03:57:50;;;;;;;;;26.75;22.25;;;;;;;;5013241;28;45445;-79
2023/01/21 04:00:15;;;;;;;;;23.25;20.75;;;;;;;;5017157;28;44765;-80
2023/01/21 04:02:40;;;;;;;;;15.00;11.75;;;;;;;;5013056;28;45405;-80
2023/01/21 04:05:06;;;;;;;;;31.50;26.00;;;;;;;;5016499;28;47802;-80
2023/01/21 04:07:31;;;;;;;;;32.00;24.50;;;;;;;;5015758;28;44772;-80
2023/01/21 04:09:56;;;;;;;;;33.00;26.25;;;;;;;;5018579;28;45371;-80
2023/01/21 04:12:22;;;;;;;;;20.75;17.00;;;;;;;;5009039;28;45364;-80
2023/01/21 04:14:47;;;;;;;;;29.50;22.00;;;;;;;;5016067;28;45829;-80
2023/01/21 04:17:12;;;;;;;;;31.25;20.00;;;;;;;;5022306;28;45216;-80
2023/01/21 04:19:37;;;;;;;;;27.50;25.00;;;;;;;;5019271;28;45221;-80
2023/01/21 04:22:02;;;;;;;;;24.25;19.75;;;;;;;;5010702;28;45185;-80
2023/01/21 04:24:28;;;;;;;;;26.75;22.75;;;;;;;;5012806;28;45297;-79
2023/01/21 04:26:53;;;;;;;;;20.50;14.25;;;;;;;;5012791;28;45418;-79
2023/01/21 04:29:19;;;;;;;;;28.50;20.50;;;;;;;;5023771;28;45201;-79
2023/01/21 04:31:44;;;;;;;;;26.25;25.00;;;;;;;;5005785;28;45993;-80
2023/01/21 04:34:10;;;;;;;;;22.50;17.75;;;;;;;;5016656;28;46081;-80
2023/01/21 04:36:35;;;;;;;;;26.00;22.50;;;;;;;;5009506;28;45312;-80
2023/01/21 04:39:00;;;;;;;;;30.50;24.25;;;;;;;;5012140;28;45295;-79
2023/01/21 04:41:25;;;;;;;;;29.75;21.00;;;;;;;;5006761;28;45415;-80
2023/01/21 04:43:50;;;;;;;;;26.50;21.50;;;;;;;;5014072;28;46370;-80
2023/01/21 04:46:16;;;;;;;;;28.50;21.50;;;;;;;;5011229;28;45376;-81
2023/01/21 04:48:41;;;;;;;;;28.50;18.75;;;;;;;;5011229;28;45365;-80
2023/01/21 04:51:06;;;;;;;;;25.75;20.75;;;;;;;;5014081;28;46189;-80
2023/01/21 04:53:31;;;;;;;;;28.75;20.75;;;;;;;;5012745;28;45402;-80
2023/01/21 04:55:57;;;;;;;;;29.00;20.75;;;;;;;;5016770;28;45232;-80
2023/01/21 04:58:22;;;;;;;;;23.50;21.25;;;;;;;;5014197;28;45524;-81
2023/01/21 05:00:47;;;;;;;;;29.50;24.25;;;;;;;;5015490;28;45448;-80
2023/01/21 05:03:13;;;;;;;;;28.00;22.50;;;;;;;;5015128;28;45346;-80
2023/01/21 05:05:38;;;;;;;;;29.00;19.50;;;;;;;;5011256;28;45226;-80
2023/01/21 05:08:03;;;;;;;;;26.50;17.50;;;;;;;;5015553;28;44853;-80
2023/01/21 05:10:28;;;;;;;;;23.75;21.50;;;;;;;;5013070;28;45426;-79
2023/01/21 05:12:54;;;;;;;;;23.75;19.50;;;;;;;;5019839;28;45577;-80
2023/01/21 05:15:19;;;;;;;;;27.00;24.50;;;;;;;;5017557;28;45376;-78
2023/01/21 05:17:44;;;;;;;;;34.00;24.75;;;;;;;;5013411;28;45262;-79
2023/01/21 05:20:10;;;;;;;;;25.50;23.50;;;;;;;;5021914;28;45342;-80
2023/01/21 05:22:35;;;;;;;;;32.00;24.50;;;;;;;;5010333;28;45314;-77
2023/01/21 05:25:00;;;;;;;;;21.25;15.75;;;;;;;;5017456;28;46891;-77
2023/01/21 05:27:26;;;;;;;;;30.00;23.25;;;;;;;;5019106;28;45489;-77
2023/01/21 05:29:51;;;;;;;;;25.25;19.50;;;;;;;;5016291;28;45204;-77
2023/01/21 05:32:17;;;;;;;;;37.50;28.00;;;;;;;;5007520;28;45209;-80
2023/01/21 05:34:42;;;;;;;;;32.25;29.50;;;;;;;;5007908;28;45269;-80
2023/01/21 05:37:07;;;;;;;;;31.00;23.75;;;;;;;;5016298;28;45362;-80
2023/01/21 05:39:32;;;;;;;;;22.75;19.25;;;;;;;;5013261;28;45452;-80
2023/01/21 05:41:57;;;;;;;;;23.75;20.00;;;;;;;;5012842;28;45293;-81
2023/01/21 05:44:23;;;;;;;;;30.25;24.50;;;;;;;;5000832;28;45624;-80
2023/01/21 05:46:48;;;;;;;;;34.75;26.75;;;;;;;;5012121;28;45340;-80
2023/01/21 05:49:13;;;;;;;;;30.00;26.25;;;;;;;;5014323;28;45620;-82
2023/01/21 05:51:38;;;;;;;;;29.00;23.75;;;;;;;;5013089;28;45296;-82
2023/01/21 05:54:04;;;;;;;;;30.50;27.50;;;;;;;;5016796;28;45204;-81
2023/01/21 05:56:29;;;;;;;;;28.25;24.50;;;;;;;;5022847;28;45338;-79
2023/01/21 05:58:54;;;;;;;;;17.00;17.00;;;;;;;;5022844;28;45248;-81
2023/01/21 06:01:19;;;;;;;;;38.50;28.00;;;;;;;;5011212;28;45208;-79
2023/01/21 06:03:44;;;;;;;;;30.75;28.50;;;;;;;;5012981;28;45528;-80
2023/01/21 06:06:09;;;;;;;;;30.75;24.25;;;;;;;;5017190;28;45223;-80
2023/01/21 06:08:35;;;;;;;;;24.25;19.00;;;;;;;;5006824;28;45264;-79
2023/01/21 06:11:00;;;;;;;;;29.75;26.00;;;;;;;;5013687;28;48534;-79
2023/01/21 06:13:25;;;;;;;;;38.50;30.50;;;;;;;;5015258;28;45288;-81
2023/01/21 06:15:53;;;;;;;;;32.00;26.75;;;;;;;;5005426;28;45388;-76
2023/01/21 06:18:18;;;;;;;;;36.00;26.50;;;;;;;;5012494;28;45930;-78
2023/01/21 06:20:43;;;;;;;;;35.75;28.75;;;;;;;;5013999;28;47276;-81
2023/01/21 06:23:09;;;;;;;;;34.00;29.25;;;;;;;;5012481;28;45308;-81
2023/01/21 06:25:34;;;;;;;;;42.50;33.50;;;;;;;;5010154;28;45296;-80
2023/01/21 06:28:00;;;;;;;;;32.00;30.50;;;;;;;;5009012;28;45434;-79
2023/01/21 06:30:25;;;;;;;;;35.75;28.75;;;;;;;;5010632;28;46155;-79
2023/01/21 06:32:50;;;;;;;;;34.50;30.00;;;;;;;;5012951;28;45165;-79
2023/01/21 06:35:16;;;;;;;;;34.25;28.00;;;;;;;;5012280;28;45205;-78
2023/01/21 06:37:42;;;;;;;;;36.50;28.75;;;;;;;;5000107;28;46285;-78
2023/01/21 06:40:08;;;;;;;;;36.25;31.25;;;;;;;;5010360;28;48094;-78
2023/01/21 06:42:34;;;;;;;;;33.00;29.75;;;;;;;;5007315;28;45329;-79
2023/01/21 06:44:59;;;;;;;;;40.50;36.75;;;;;;;;5013833;28;45438;-78
2023/01/21 06:47:24;;;;;;;;;36.00;29.25;;;;;;;;5005603;28;45268;-77
2023/01/21 06:49:49;;;;;;;;;39.25;30.00;;;;;;;;5015908;28;47078;-79
2023/01/21 06:52:15;;;;;;;;;34.50;33.75;;;;;;;;5017133;28;45347;-77
2023/01/21 06:54:40;;;;;;;;;41.50;32.50;;;;;;;;5018544;28;45400;-79
2023/01/21 06:57:05;;;;;;;;;40.50;32.50;;;;;;;;5008846;28;45391;-78
2023/01/21 06:59:31;;;;;;;;;39.50;37.75;;;;;;;;5016330;28;46112;-79
2023/01/21 07:01:57;;;;;;;;;47.00;34.50;;;;;;;;5010484;28;45468;-79
2023/01/21 07:04:23;;;;;;;;;46.00;36.25;;;;;;;;5018405;28;45475;-79
2023/01/21 07:06:48;;;;;;;;;47.00;34.25;;;;;;;;5011942;28;45402;-79
2023/01/21 07:09:13;;;;;;;;;51.75;39.25;;;;;;;;5019595;28;45235;-79
2023/01/21 07:11:39;;;;;;;;;48.75;35.25;;;;;;;;5013989;28;45496;-78
2023/01/21 07:14:04;;;;;;;;;53.25;41.50;;;;;;;;5013473;28;45389;-77
2023/01/21 07:16:29;;;;;;;;;36.00;33.50;;;;;;;;5010139;28;45335;-77
2023/01/21 07:18:54;;;;;;;;;43.25;30.75;;;;;;;;5025444;28;46233;-77
2023/01/21 07:21:19;;;;;;;;;37.50;31.00;;;;;;;;5018947;28;45317;-78
2023/01/21 07:23:45;;;;;;;;;37.00;33.00;;;;;;;;5021930;28;45225;-77
2023/01/21 07:26:10;;;;;;;;;53.00;43.67;;;;;;;;5013874;28;45928;-78
2023/01/21 07:28:36;;;;;;;;;43.33;38.33;;;;;;;;5013894;28;45387;-77
2023/01/21 07:31:02;;;;;;;;;41.67;36.00;;;;;;;;5009573;28;45373;-79
2023/01/21 07:33:27;;;;;;;;;47.00;35.67;;;;;;;;5006931;28;45221;-79
2023/01/21 07:35:53;;;;;;;;;46.67;36.67;;;;;;;;5004728;28;45458;-79
2023/01/21 07:38:18;;;;;;;;;57.33;44.33;;;;;;;;5006632;28;46874;-77
2023/01/21 07:40:46;;;;;;;;;42.67;38.00;;;;;;;;5009566;28;45276;-77
2023/01/21 07:43:11;;;;;;;;;47.67;40.67;;;;;;;;5007540;28;45326;-78
2023/01/21 07:45:36;;;;;;;;;41.00;33.33;;;;;;;;5003593;28;45226;-77
2023/01/21 07:48:02;;;;;;;;;40.00;32.67;;;;;;;;5008782;28;46087;-77
2023/01/21 07:50:27;;;;;;;;;51.33;39.67;;;;;;;;5013568;28;45232;-77
2023/01/21 07:52:53;;;;;;;;;42.25;38.25;;;;;;;;5010239;28;45301;-78
2023/01/21 07:55:18;;;;;;;;;45.33;41.33;;;;;;;;5014030;28;45510;-76
2023/01/21 07:57:44;;;;;;;;;43.50;31.00;;;;;;;;5020471;28;45310;-77
2023/01/21 08:00:09;;;;;;;;;48.33;41.33;;;;;;;;5014316;28;45711;-74
2023/01/21 08:02:34;;;;;;;;;47.33;40.67;;;;;;;;5011087;28;45379;-78
2023/01/21 08:05:00;;;;;;;;;37.33;32.00;;;;;;;;5016714;28;45316;-77
2023/01/21 08:07:25;;;;;;;;;42.33;28.67;;;;;;;;5013335;28;45399;-78
2023/01/21 08:09:50;;;;;;;;;57.67;42.33;;;;;;;;5015139;28;45422;-78
2023/01/21 08:12:15;;;;;;;;;55.00;44.00;;;;;;;;5012070;28;45190;-78
2023/01/21 08:14:40;;;;;;;;;46.33;41.33;;;;;;;;5009119;28;45464;-77
2023/01/21 08:17:06;;;;;;;;;60.00;47.33;;;;;;;;5015635;28;46370;-77
2023/01/21 08:19:31;;;;;;;;;47.00;33.67;;;;;;;;5017944;28;45398;-77
2023/01/21 08:21:56;;;;;;;;;49.00;42.67;;;;;;;;5009354;28;45328;-77
2023/01/21 08:24:21;;;;;;;;;49.00;40.33;;;;;;;;5019285;28;45485;-77
2023/01/21 08:26:47;;;;;;;;;52.33;42.00;;;;;;;;5008636;28;47984;-77
2023/01/21 08:29:13;;;;;;;;;47.75;38.75;;;;;;;;5020564;28;45230;-77
2023/01/21 08:31:38;;;;;;;;;52.67;33.00;;;;;;;;5006628;28;45267;-77
2023/01/21 08:34:03;;;;;;;;;45.33;35.33;;;;;;;;5020714;28;45470;-79
2023/01/21 08:36:28;;;;;;;;;50.67;40.00;;;;;;;;5011559;28;45314;-79
2023/01/21 08:38:54;;;;;;;;;51.00;40.00;;;;;;;;5016584;28;45305;-79
2023/01/21 08:41:19;;;;;;;;;63.33;46.67;;;;;;;;5011385;28;45181;-79
2023/01/21 08:43:45;;;;;;;;;48.67;39.00;;;;;;;;5015965;28;45004;-80
2023/01/21 08:46:10;;;;;;;;;60.33;44.00;;;;;;;;5012886;28;45413;-78
2023/01/21 08:48:38;;;;;;;;;60.67;43.67;;;;;;;;5010841;28;45355;-80
2023/01/21 08:51:04;;;;;;;;;50.00;41.00;;;;;;;;5012613;28;45409;-79
2023/01/21 08:53:29;;;;;;;;;50.00;42.67;;;;;;;;5012070;28;45296;-78
2023/01/21 08:55:58;;;;;;;;;56.33;42.67;;;;;;;;5011694;28;45329;-79
2023/01/21 08:58:23;;;;;;;;;28.67;27.00;;;;;;;;5023559;28;45269;-79
2023/01/21 09:00:50;;;;;;;;;53.67;42.67;;;;;;;;5022772;28;45522;-79
2023/01/21 09:03:18;;;;;;;;;52.33;41.67;;;;;;;;5014207;28;45485;-76
2023/01/21 09:05:43;;;;;;;;;52.00;42.67;;;;;;;;5017026;28;46059;-76
2023/01/21 09:08:08;;;;;;;;;47.33;38.33;;;;;;;;5014451;28;45443;-75
2023/01/21 09:13:18;;;;;;;;;60.00;46.00;;;;;;;;5014848;28;45417;-77
2023/01/21 09:15:44;;;;;;;;;54.67;40.00;;;;;;;;5015084;28;46893;-78
2023/01/21 09:18:10;;;;;;;;;53.67;42.00;;;;;;;;5017433;28;45491;-78
2023/01/21 09:20:35;;;;;;;;;58.00;44.00;;;;;;;;5010431;28;46334;-78
2023/01/21 09:23:00;;;;;;;;;54.33;45.00;;;;;;;;5007497;28;45716;-78
2023/01/21 09:25:26;;;;;;;;;53.67;44.67;;;;;;;;5010085;28;45351;-78
2023/01/21 09:27:51;;;;;;;;;62.67;46.33;;;;;;;;5009791;28;45284;-78
2023/01/21 09:30:16;;;;;;;;;20.33;8.00;;;;;;;;5007765;28;45641;-76
2023/01/21 09:32:42;;;;;;;;;51.00;42.33;;;;;;;;4999879;28;45506;-76
2023/01/21 09:35:07;;;;;;;;;58.00;40.33;;;;;;;;5006192;28;46144;-78
2023/01/21 09:37:33;;;;;;;;;59.33;42.00;;;;;;;;5003491;28;45291;-78
2023/01/21 09:39:59;;;;;;;;;61.00;46.67;;;;;;;;5014360;28;45400;-78
2023/01/21 09:42:26;;;;;;;;;62.33;46.67;;;;;;;;5002275;28;45767;-77
2023/01/21 09:44:52;;;;;;;;;64.67;47.33;;;;;;;;5011536;28;46373;-78
2023/01/21 09:47:38;;;;;;;;;45.33;40.33;;;;;;;;5000891;28;45331;-78
2023/01/21 09:50:03;;;;;;;;;51.00;42.67;;;;;;;;5009457;28;45769;-78
2023/01/21 09:52:31;;;;;;;;;54.67;44.33;;;;;;;;5017861;28;47063;-78
2023/01/21 09:54:57;;;;;;;;;53.00;44.67;;;;;;;;5011831;28;45348;-79
2023/01/21 09:57:25;;;;;;;;;57.00;46.67;;;;;;;;5012537;28;45351;-78
2023/01/21 09:59:58;;;;;;;;;54.00;43.33;;;;;;;;5015722;28;45569;-79
2023/01/21 10:02:32;;;;;;;;;55.00;40.00;;;;;;;;5007857;28;45319;-78
2023/01/21 10:05:05;;;;;;;;;56.67;47.67;;;;;;;;5010376;28;44953;-78
2023/01/21 10:07:36;;;;;;;;;55.00;44.00;;;;;;;;5012007;28;45489;-78
2023/01/21 10:10:12;;;;;;;;;64.67;44.00;;;;;;;;5004662;28;45400;-78
2023/01/21 10:12:57;;;;;;;;;56.67;44.33;;;;;;;;4975522;28;1125779;-79
2023/01/21 10:16:01;;;;;;;;;60.00;46.33;;;;;;;;5013843;28;45406;-78
2023/01/21 10:18:27;;;;;;;;;60.00;43.50;;;;;;;;4966383;28;45385;-79
2023/01/21 10:21:16;;;;;;;;;60.00;44.67;;;;;;;;4963738;28;45602;-78
2023/01/21 10:23:44;;;;;;;;;62.50;47.50;;;;;;;;4966218;28;45461;-78
2023/01/21 10:26:11;;;;;;;;;56.00;46.50;;;;;;;;5004846;28;45396;-78
2023/01/21 10:28:40;;;;;;;;;53.00;43.00;;;;;;;;5015261;28;45656;-78
2023/01/21 10:31:26;;;;;;;;;67.00;45.33;;;;;;;;5004647;28;45448;-78
2023/01/21 10:33:51;;;;;;;;;52.00;46.33;;;;;;;;5012793;28;46020;-78
2023/01/21 10:36:25;;;;;;;;;61.00;44.33;;;;;;;;5007907;28;46734;-78
2023/01/21 10:39:11;;;;;;;;;64.67;50.67;;;;;;;;5014487;28;45454;-78
2023/01/21 10:41:48;;;;;;;;;52.25;41.50;;;;;;;;5005233;28;45363;-77
2023/01/21 10:44:24;;;;;;;;;63.50;46.00;;;;;;;;5010951;28;45354;-78
2023/01/21 10:47:04;;;;;;;;;58.50;44.75;;;;;;;;5006933;28;46528;-79
2023/01/21 10:49:48;;;;;;;;;50.25;41.25;;;;;;;;5013882;28;45782;-78
2023/01/21 10:52:33;;;;;;;;;56.50;40.75;;;;;;;;5006718;28;45304;-78
2023/01/21 10:54:58;;;;;;;;;48.50;39.75;;;;;;;;5009109;28;47208;-78
2023/01/21 10:57:23;;;;;;;;;63.33;47.33;;;;;;;;5010690;28;46988;-78
2023/01/21 10:59:49;;;;;;;;;56.33;43.67;;;;;;;;5016151;28;45312;-78
2023/01/21 11:02:17;;;;;;;;;71.33;53.00;;;;;;;;5014388;28;45327;-78
2023/01/21 11:04:43;;;;;;;;;62.00;44.33;;;;;;;;5022207;28;44802;-78
2023/01/21 11:07:11;;;;;;;;;52.00;40.33;;;;;;;;5009020;28;46573;-78
2023/01/21 11:09:40;;;;;;;;;72.33;47.67;;;;;;;;5015227;28;45449;-79
2023/01/21 11:12:08;;;;;;;;;74.67;55.33;;;;;;;;5003005;28;45382;-78
2023/01/21 11:14:33;;;;;;;;;80.67;58.33;;;;;;;;5014685;28;46147;-78
2023/01/21 11:16:59;;;;;;;;;63.67;50.33;;;;;;;;5005608;28;45481;-79
2023/01/21 11:19:29;;;;;;;;;60.25;49.50;;;;;;;;5014209;28;45336;-79
2023/01/21 11:22:10;;;;;;;;;65.75;48.50;;;;;;;;5005724;28;44884;-79
2023/01/21 11:24:42;;;;;;;;;63.00;48.00;;;;;;;;5007488;28;46168;-78
2023/01/21 11:27:17;;;;;;;;;57.00;41.00;;;;;;;;5006133;28;45462;-78
2023/01/21 11:29:44;;;;;;;;;60.25;45.00;;;;;;;;5016053;28;45277;-78
2023/01/21 11:32:20;;;;;;;;;58.50;47.25;;;;;;;;5013059;28;45363;-79
2023/01/21 11:34:46;;;;;;;;;59.50;46.75;;;;;;;;5010096;28;45372;-79
2023/01/21 11:37:23;;;;;;;;;59.25;45.00;;;;;;;;5009037;28;47659;-78
2023/01/21 11:40:11;;;;;;;;;53.00;44.00;;;;;;;;5012809;28;45566;-79
2023/01/21 11:42:52;;;;;;;;;56.75;45.00;;;;;;;;5006319;28;45505;-78
2023/01/21 11:45:31;;;;;;;;;46.25;39.00;;;;;;;;5010581;28;45493;-78
2023/01/21 11:47:57;;;;;;;;;45.00;32.25;;;;;;;;5017253;28;45463;-77
2023/01/21 11:50:25;;;;;;;;;52.50;41.00;;;;;;;;5014656;28;45218;-77
2023/01/21 11:53:05;;;;;;;;;45.75;38.50;;;;;;;;5014345;28;45373;-77
2023/01/21 11:55:33;;;;;;;;;53.25;38.00;;;;;;;;5012039;28;45348;-75
2023/01/21 11:57:58;;;;;;;;;48.50;38.25;;;;;;;;5014839;28;45375;-76
2023/01/21 12:00:25;;;;;;;;;45.50;36.75;;;;;;;;5016409;28;45386;-77
2023/01/21 12:02:54;;;;;;;;;50.50;40.00;;;;;;;;5016229;28;45269;-73
2023/01/21 12:05:25;;;;;;;;;39.50;34.00;;;;;;;;5016923;28;45410;-77
2023/01/21 12:07:51;;;;;;;;;52.25;40.00;;;;;;;;5010586;28;45296;-76
2023/01/21 12:10:25;;;;;;;;;51.75;41.25;;;;;;;;5016786;28;45419;-76
2023/01/21 12:12:56;;;;;;;;;53.00;41.50;;;;;;;;5016368;28;45238;-77
2023/01/21 12:15:51;;;;;;;;;53.00;37.00;;;;;;;;5018911;28;45613;-76
2023/01/21 12:18:23;;;;;;;;;38.50;31.25;;;;;;;;5013789;28;47260;-79
2023/01/21 12:20:58;;;;;;;;;44.75;33.50;;;;;;;;5015906;28;45706;-76
2023/01/21 12:23:36;;;;;;;;;50.75;41.25;;;;;;;;5011347;28;45536;-76
2023/01/21 12:26:04;;;;;;;;;43.25;37.00;;;;;;;;5008365;28;45469;-76
2023/01/21 12:28:48;;;;;;;;;55.75;42.00;;;;;;;;5005572;28;45323;-76
2023/01/21 12:31:32;;;;;;;;;60.25;45.00;;;;;;;;5007084;28;45293;-76
2023/01/21 12:34:00;;;;;;;;;56.25;43.00;;;;;;;;5018069;28;45256;-75
2023/01/21 12:36:44;;;;;;;;;51.00;41.00;;;;;;;;5011905;28;45878;-75
2023/01/21 12:39:19;;;;;;;;;51.50;42.00;;;;;;;;5012954;28;45361;-76
2023/01/21 12:41:47;;;;;;;;;53.25;39.25;;;;;;;;5010390;28;45554;-75
2023/01/21 12:44:12;;;;;;;;;59.50;43.50;;;;;;;;5015706;28;45460;-75
2023/01/21 12:46:40;;;;;;;;;57.75;44.50;;;;;;;;5017949;28;45693;-75
2023/01/21 12:49:11;;;;;;;;;59.25;45.75;;;;;;;;5015723;28;46645;-76
2023/01/21 12:51:41;;;;;;;;;43.25;36.25;;;;;;;;5011647;28;45472;-75
2023/01/21 12:54:15;;;;;;;;;47.00;38.25;;;;;;;;5015709;28;45284;-74
2023/01/21 12:56:46;;;;;;;;;50.75;40.00;;;;;;;;5009786;28;45474;-75
2023/01/21 12:59:32;;;;;;;;;68.25;51.00;;;;;;;;5017377;28;45397;-75
2023/01/21 13:02:04;;;;;;;;;56.50;42.50;;;;;;;;5007940;28;45462;-75
2023/01/21 13:04:42;;;;;;;;;50.50;38.00;;;;;;;;5012445;28;45216;-75
2023/01/21 13:07:13;;;;;;;;;51.25;39.00;;;;;;;;5006480;28;45456;-74
2023/01/21 13:09:38;;;;;;;;;42.75;35.25;;;;;;;;5015613;28;46993;-74
2023/01/21 13:12:08;;;;;;;;;45.50;37.75;;;;;;;;5007002;28;45388;-75
2023/01/21 13:14:38;;;;;;;;;45.25;39.00;;;;;;;;5017603;28;45288;-75
2023/01/21 13:17:10;;;;;;;;;55.25;44.25;;;;;;;;5007170;28;45379;-75
2023/01/21 13:19:35;;;;;;;;;44.00;36.25;;;;;;;;5017944;28;46744;-76
2023/01/21 13:22:08;;;;;;;;;56.50;42.50;;;;;;;;5008030;28;45556;-76
2023/01/21 13:24:33;;;;;;;;;57.00;46.00;;;;;;;;5017713;28;45338;-75
2023/01/21 13:27:18;;;;;;;;;59.25;44.25;;;;;;;;5004190;28;46223;-76
2023/01/21 13:29:50;;;;;;;;;52.75;42.25;;;;;;;;5011060;28;45492;-77
2023/01/21 13:32:41;;;;;;;;;39.50;33.00;;;;;;;;5007199;28;45707;-77
2023/01/21 13:35:06;;;;;;;;;57.25;43.50;;;;;;;;5018873;28;45458;-76
2023/01/21 13:37:46;;;;;;;;;52.00;40.25;;;;;;;;5017795;28;45204;-76
2023/01/21 13:40:20;;;;;;;;;50.50;40.00;;;;;;;;5015224;28;45269;-76
2023/01/21 13:43:04;;;;;;;;;46.75;39.25;;;;;;;;5014286;28;45459;-77
2023/01/21 13:45:44;;;;;;;;;47.25;36.00;;;;;;;;5014562;28;45537;-76
2023/01/21 13:48:12;;;;;;;;;52.25;39.75;;;;;;;;5009235;28;46627;-75
2023/01/21 13:50:56;;;;;;;;;49.50;39.75;;;;;;;;5014216;28;46587;-75
2023/01/21 13:53:37;;;;;;;;;47.25;38.50;;;;;;;;5019668;28;45259;-74
2023/01/21 13:56:02;;;;;;;;;43.75;34.25;;;;;;;;5009857;28;45471;-75
2023/01/21 13:58:39;;;;;;;;;48.75;41.00;;;;;;;;5012395;28;45412;-75
2023/01/21 14:01:09;;;;;;;;;42.50;38.75;;;;;;;;5016546;28;46636;-75
2023/01/21 14:03:42;;;;;;;;;39.00;36.25;;;;;;;;5017550;28;45987;-75
2023/01/21 14:06:12;;;;;;;;;42.50;36.50;;;;;;;;5010354;28;45344;-75
2023/01/21 14:08:56;;;;;;;;;49.25;37.75;;;;;;;;5005194;28;45490;-76
2023/01/21 14:11:21;;;;;;;;;40.50;35.00;;;;;;;;5010026;28;46985;-75
2023/01/21 14:13:46;;;;;;;;;41.25;29.75;;;;;;;;5019038;28;45300;-75
2023/01/21 14:16:11;;;;;;;;;48.25;38.25;;;;;;;;5011448;28;45411;-75
2023/01/21 14:18:39;;;;;;;;;49.25;37.75;;;;;;;;5018422;28;45336;-76
2023/01/21 14:21:28;;;;;;;;;35.25;26.25;;;;;;;;5006647;28;45616;-74
2023/01/21 14:24:06;;;;;;;;;53.25;33.75;;;;;;;;5012077;28;45193;-76
2023/01/21 14:26:44;;;;;;;;;45.00;36.75;;;;;;;;5004245;28;45296;-75
2023/01/21 14:29:32;;;;;;;;;38.25;33.50;;;;;;;;5017883;28;45577;-75
2023/01/21 14:32:14;;;;;;;;;33.75;30.00;;;;;;;;5003487;28;45119;-75